Boswell, Indiana
Current Conditions -  °F | °C
As of 4:54 AM on Monday 26 Jan 2015 (Local Time) from KLAF Reporting Station
Clear Clear  
Wind Chill: 12°   Ceiling: Unl
Heat Index: 20°   Visibility: 10mi
Dew Point: 16°   Wind: 6mph
Humidity: 85%   Direction: 360°N
Pressure: 29.94"   Gusts: NA
Location:  40.52°N, 87.38°W
Report Text: KLAF 260954Z AUTO 36005KT 10SM CLR M07/M09 A2994 RMK AO2 SLP147 T10671089 TSNO
Loading
Personal Weather Stations






























Interactive Weather Map New forecast layout! Learn more

10-Day Weather Forecast

Advertisements
Track Severe Weather on mobile